Sipiwesk, Canada
Current Conditions -  °F | °C
As of 10:00 PM on Saturday 24 Jan 2015 (Local Time) from CYTH Reporting Station
Broken Clouds Broken Clouds  
Wind Chill: -9°   Ceiling: 9300
Heat Index: -9°   Visibility: 15mi
Dew Point: -15°   Wind: 2mph
Humidity: 77%   Direction: NA
Pressure: 30.05"   Gusts: NA
Location:  55.45°N, 97.4°W
Report Text: CYTH 250400Z VRB02KT 15SM BKN093 BKN160 M23/M26 A3005 RMK AC6AC1 SLP209
Loading
Personal Weather Stations






























Interactive Weather Map New forecast layout! Learn more

10-Day Weather Forecast

Advertisements
Track Severe Weather on mobile